Wednesday, February 21, 2018, 8:05 PM EST
Back to Local

KDUJ, Du Bois-jefferson County

Location: Reynoldsville, PA, United States Lat: 41.183
Local Time: 8:05 PM EST ( 1:05 GMT) Lon: -78.883
Time Zone: US/Eastern Elev: 1820 ft

Show me the last for .
Show Decoded

2018-02-21 19:53 METAR KDUJ 220053Z AUTO 36007KT 10SM OVC009 05/03 A3046 RMK AO2 SLP317 T00500028
                 =
2018-02-21 19:45 METAR KDUJ 220045Z AUTO 01008KT 10SM OVC009 05/03 A3046 RMK AO2 T00500028 =
2018-02-21 19:16 METAR KDUJ 220016Z AUTO 36008KT 10SM BKN011 OVC025 05/03 A3044 RMK AO2 T00500028
                 =
2018-02-21 18:53 METAR KDUJ 212353Z AUTO 35010KT 10SM OVC024 06/03 A3045 RMK AO2 SLP312 60003
                 T00560028 10128 20056 53034 =
2018-02-21 18:27 METAR KDUJ 212327Z AUTO 35008KT 10SM SCT009 OVC025 06/03 A3043 RMK AO2 T00560033
                 =
2018-02-21 18:18 METAR KDUJ 212318Z AUTO 35011KT 10SM BKN009 OVC025 06/04 A3042 RMK AO2 T00610039
                 =
2018-02-21 18:06 METAR KDUJ 212306Z AUTO 34009KT 10SM SCT009 OVC025 06/04 A3042 RMK AO2 T00610039
                 =
2018-02-21 17:53 METAR KDUJ 212253Z AUTO 35007KT 10SM OVC023 07/04 A3041 RMK AO2 SLP298 T00670044
                 =
2018-02-21 17:34 METAR KDUJ 212234Z AUTO 35011KT 10SM SCT006 OVC023 07/04 A3040 RMK AO2 T00670044
                 =
2018-02-21 17:09 METAR KDUJ 212209Z AUTO 01010KT 10SM OVC005 07/06 A3038 RMK AO2 CIG 004V008
                 T00720056 =
2018-02-21 16:53 METAR KDUJ 212153Z AUTO 36009KT 7SM OVC004 08/07 A3038 RMK AO2 RAB31E37 CIG
                 004V008 SLP287 P0001 T00830067 =
2018-02-21 15:53 METAR KDUJ 212053Z AUTO 33013G19KT 10SM OVC005 11/09 A3034 RMK AO2 SLP272 60002
                 T01060089 53018 =
2018-02-21 15:02 METAR KDUJ 212002Z AUTO 30005KT 5SM BR BKN007 OVC013 12/11 A3032 RMK AO2
                 T01220106 =
2018-02-21 14:53 METAR KDUJ 211953Z AUTO 30005KT 3SM BR SCT008 BKN013 OVC036 12/11 A3031 RMK AO2
                 RAE1858 SLP262 P0001 T01220106 =
2018-02-21 14:43 METAR KDUJ 211943Z AUTO 30005KT 2 1/2SM BR FEW006 BKN013 OVC040 12/11 A3031 RMK
                 AO2 RAE1858 P0001 T01220106 =
2018-02-21 14:15 METAR KDUJ 211915Z AUTO 29007KT 4SM BR FEW007 OVC040 12/11 A3030 RMK AO2 RAE1858
                 P0000 T01220106 =
2018-02-21 13:53 METAR KDUJ 211853Z AUTO 30005KT 2 1/2SM -RA BR OVC033 12/10 A3029 RMK AO2 VIS
                 2V5 RAB47 SLP255 P0001 T01220100 =
2018-02-21 13:41 METAR KDUJ 211841Z AUTO 28006KT 10SM OVC031 12/10 A3029 RMK AO2 T01220100 =
2018-02-21 12:53 METAR KDUJ 211753Z AUTO 31005KT 10SM SCT017 OVC024 12/10 A3028 RMK AO2 SLP252
                 T01220100 10206 20122 53028 =
2018-02-21 12:37 METAR KDUJ 211737Z AUTO 32011G22KT 4SM HZ BKN015 OVC021 13/10 A3028 RMK AO2
                 T01280100 =
2018-02-21 12:30 METAR KDUJ 211730Z AUTO 31014G23KT 5SM HZ BKN013 OVC021 13/10 A3027 RMK AO2
                 T01330100 =
2018-02-21 12:08 METAR KDUJ 211708Z AUTO 30012G19KT 10SM BKN022 BKN029 OVC037 16/11 A3025 RMK AO2
                 T01560111 =
2018-02-21 11:53 METAR KDUJ 211653Z AUTO 28011G24KT 10SM OVC031 17/12 A3025 RMK AO2 PK WND
                 24031/1607 SLP235 T01720117 =
2018-02-21 10:53 METAR KDUJ 211553Z AUTO 24015G30KT 10SM OVC032 19/12 A3022 RMK AO2 PK WND
                 21032/1455 SLP223 T01940117 =
2018-02-21 09:53 METAR KDUJ 211453Z AUTO 24019G28KT 10SM BKN036 OVC043 21/12 A3020 RMK AO2 PK WND
                 23030/1435 SLP215 T02060117 51003 =
2018-02-21 08:53 METAR KDUJ 211353Z AUTO 22014G27KT 10SM BKN070 OVC090 19/11 A3020 RMK AO2 PK WND
                 23027/1350 SLP217 T01890106 =
2018-02-21 07:53 METAR KDUJ 211253Z AUTO 22009KT 10SM OVC075 17/10 A3020 RMK AO2 SLP218 T01720100
                 =
2018-02-21 06:53 METAR KDUJ 211153Z AUTO 22007KT 10SM OVC075 17/09 A3019 RMK AO2 SLP214 T01670094
                 10178 20161 53001 =
2018-02-21 05:53 METAR KDUJ 211053Z AUTO 20008KT 10SM OVC075 17/09 A3018 RMK AO2 SLP213 T01670089
                 =
2018-02-21 04:53 METAR KDUJ 210953Z AUTO 21007KT 10SM BKN070 17/09 A3018 RMK AO2 SLP210 T01670089
                 =
2018-02-21 03:53 METAR KDUJ 210853Z AUTO 21007KT 10SM OVC065 17/09 A3018 RMK AO2 SLP211 T01720089
                 58007 =
2018-02-21 02:53 METAR KDUJ 210753Z AUTO 22007KT 10SM CLR 17/08 A3019 RMK AO2 SLP214 T01670083 =
2018-02-21 01:53 METAR KDUJ 210653Z AUTO 22010KT 10SM CLR 17/08 A3020 RMK AO2 SLP218 T01720083 =
2018-02-21 00:53 METAR KDUJ 210553Z AUTO 21008KT 10SM CLR 18/08 A3021 RMK AO2 SLP219 T01780083
                 10200 20167 53003 =
2018-02-20 23:53 METAR KDUJ 210453Z AUTO 21007KT 10SM CLR 18/08 A3020 RMK AO2 SLP218 T01780083
                 402220117 =
2018-02-20 22:53 METAR KDUJ 210353Z AUTO VRB05KT 10SM CLR 18/09 A3019 RMK AO2 SLP216 T01780089 =
2018-02-20 21:53 METAR KDUJ 210253Z AUTO 20005KT 10SM CLR 18/09 A3020 RMK AO2 SLP220 T01780089
                 56002 =
2018-02-20 20:53 METAR KDUJ 210153Z AUTO 21006KT 10SM CLR 18/09 A3020 RMK AO2 SLP221 T01830089 =

Support USWX by starting your Amazon purchase here.